createdAt,value
2022-12-17T00:02:32.699Z,-1.94
2022-12-17T00:05:23.415Z,-1.88
2022-12-17T00:08:13.577Z,-1.88
2022-12-17T00:11:03.971Z,-1.86
2022-12-17T00:13:53.960Z,-1.85
2022-12-17T00:16:45.035Z,-1.84
2022-12-17T00:19:35.531Z,-1.90
2022-12-17T00:22:25.572Z,-1.90
2022-12-17T00:25:16.014Z,-1.86
2022-12-17T00:28:06.176Z,-1.85
2022-12-17T00:30:56.566Z,-1.85
2022-12-17T00:33:47.295Z,-1.88
2022-12-17T00:36:37.446Z,-1.95
2022-12-17T00:39:27.866Z,-1.97
2022-12-17T00:42:18.103Z,-1.99
2022-12-17T00:45:08.623Z,-1.94
2022-12-17T00:48:00.158Z,-1.91
2022-12-17T00:50:50.588Z,-1.91
2022-12-17T00:53:40.772Z,-1.91
2022-12-17T00:56:31.166Z,-1.93
2022-12-17T00:59:21.339Z,-1.91
2022-12-17T01:02:12.171Z,-1.86
2022-12-17T01:05:02.935Z,-1.87
2022-12-17T01:07:53.174Z,-1.83
2022-12-17T01:10:47.281Z,-1.80
2022-12-17T01:13:37.925Z,-1.80
2022-12-17T01:16:29.056Z,-1.74
2022-12-17T01:19:19.626Z,-1.74
2022-12-17T01:22:10.191Z,-1.72
2022-12-17T01:25:00.618Z,-1.67
2022-12-17T01:27:50.723Z,-1.72
2022-12-17T01:30:41.300Z,-1.73
2022-12-17T01:33:31.286Z,-1.75
2022-12-17T01:36:21.765Z,-1.75
2022-12-17T01:39:11.927Z,-1.74
2022-12-17T01:42:02.550Z,-1.70
2022-12-17T01:44:52.928Z,-1.72
2022-12-17T01:47:43.056Z,-1.75
2022-12-17T01:50:33.330Z,-1.76
2022-12-17T01:53:23.466Z,-1.81
2022-12-17T01:56:13.964Z,-1.83
2022-12-17T01:59:03.989Z,-1.85
2022-12-17T02:01:54.506Z,-1.85
2022-12-17T02:04:45.014Z,-1.91
2022-12-17T02:07:35.493Z,-1.94
2022-12-17T02:10:26.345Z,-1.91
2022-12-17T02:13:16.428Z,-1.93
2022-12-17T02:16:07.123Z,-1.93
2022-12-17T02:18:57.648Z,-1.94
2022-12-17T02:21:48.123Z,-1.89
2022-12-17T02:24:38.184Z,-1.95
2022-12-17T02:27:28.670Z,-2.00
2022-12-17T02:30:18.961Z,-2.03
2022-12-17T02:33:09.003Z,-2.06
2022-12-17T02:35:59.521Z,-2.05
2022-12-17T02:38:49.587Z,-2.18
2022-12-17T02:41:40.010Z,-2.16
2022-12-17T02:44:30.216Z,-2.19
2022-12-17T02:47:20.813Z,-2.19
2022-12-17T02:50:11.310Z,-2.29
2022-12-17T02:53:01.395Z,-2.24
2022-12-17T02:55:51.794Z,-2.27
2022-12-17T02:58:41.827Z,-2.30
2022-12-17T03:01:32.484Z,-2.25
2022-12-17T03:04:22.857Z,-2.26
2022-12-17T03:07:13.543Z,-2.24
2022-12-17T03:10:03.815Z,-2.24
2022-12-17T03:12:54.321Z,-2.22
2022-12-17T03:15:44.960Z,-2.25
2022-12-17T03:18:35.153Z,-2.27
2022-12-17T03:21:25.626Z,-2.26
2022-12-17T03:24:15.846Z,-2.28
2022-12-17T03:27:06.272Z,-2.38
2022-12-17T03:29:56.327Z,-2.35
2022-12-17T03:32:46.746Z,-2.32
2022-12-17T03:35:37.116Z,-2.30
2022-12-17T03:38:27.241Z,-2.29
2022-12-17T03:41:17.899Z,-2.28
2022-12-17T03:44:07.950Z,-2.34
2022-12-17T03:46:58.485Z,-2.32
2022-12-17T03:49:48.787Z,-2.30
2022-12-17T03:52:39.267Z,-2.36
2022-12-17T03:55:29.632Z,-2.36
2022-12-17T03:58:19.656Z,-2.33
2022-12-17T04:01:10.047Z,-2.31
2022-12-17T04:04:00.580Z,-2.23
2022-12-17T04:06:51.085Z,-2.26
2022-12-17T04:09:41.060Z,-2.26
2022-12-17T04:12:31.699Z,-2.38
2022-12-17T04:15:21.841Z,-2.33
2022-12-17T04:18:12.624Z,-2.32
2022-12-17T04:21:03.183Z,-2.31
2022-12-17T04:23:53.652Z,-2.30
2022-12-17T04:26:43.760Z,-2.35
2022-12-17T04:29:34.092Z,-4.18
2022-12-17T04:32:24.291Z,-2.25
2022-12-17T04:35:14.715Z,-2.34
2022-12-17T04:38:04.903Z,-2.33
2022-12-17T04:40:55.330Z,-2.30
2022-12-17T04:43:45.359Z,-2.32
2022-12-17T04:46:35.765Z,-2.30
2022-12-17T04:49:26.305Z,-2.31
2022-12-17T04:52:16.712Z,-2.23
2022-12-17T04:55:06.862Z,-2.26
2022-12-17T04:57:57.185Z,-2.24
2022-12-17T05:00:47.360Z,-2.24
2022-12-17T05:03:38.111Z,-2.20
2022-12-17T05:06:28.714Z,-2.29
2022-12-17T05:09:19.053Z,-2.33
2022-12-17T05:12:09.126Z,-2.37
2022-12-17T05:14:59.694Z,-2.35
2022-12-17T05:17:49.809Z,-2.43
2022-12-17T05:20:40.274Z,-2.50
2022-12-17T05:23:30.367Z,-2.53
2022-12-17T05:26:20.819Z,-2.51
2022-12-17T05:29:15.646Z,-2.55
2022-12-17T05:32:06.306Z,-2.50
2022-12-17T05:34:57.074Z,-2.53
2022-12-17T05:37:47.731Z,-2.55
2022-12-17T05:40:38.225Z,-2.45
2022-12-17T05:43:28.756Z,-2.37
2022-12-17T05:46:19.329Z,-2.35
2022-12-17T05:49:09.806Z,-2.32
2022-12-17T05:52:00.244Z,-2.36
2022-12-17T05:54:50.462Z,-2.31
2022-12-17T05:57:40.978Z,-2.33
2022-12-17T06:00:31.131Z,-2.37
2022-12-17T06:03:21.648Z,-2.31
2022-12-17T06:06:12.257Z,-2.41
2022-12-17T06:09:02.306Z,-2.40
2022-12-17T06:11:53.936Z,-2.50
2022-12-17T06:14:45.619Z,-2.40
2022-12-17T06:17:35.993Z,-2.40
2022-12-17T06:20:25.988Z,-2.29
2022-12-17T06:23:16.483Z,-2.31
2022-12-17T06:26:06.774Z,-2.35
2022-12-17T06:28:57.010Z,-2.33
2022-12-17T06:31:47.571Z,-2.31
2022-12-17T06:34:37.970Z,-2.37
2022-12-17T06:37:28.440Z,-2.36
2022-12-17T06:40:18.553Z,-2.32
2022-12-17T06:43:08.632Z,-2.32
2022-12-17T06:45:58.590Z,-2.34
2022-12-17T06:49:08.552Z,-2.37
2022-12-17T06:51:58.715Z,-2.44
2022-12-17T06:54:48.757Z,-2.53
2022-12-17T06:57:42.460Z,-3.85
2022-12-17T07:00:34.333Z,-2.37
2022-12-17T07:03:25.069Z,-2.46
2022-12-17T07:06:15.817Z,-2.35
2022-12-17T07:09:05.865Z,-2.35
2022-12-17T07:11:56.432Z,-2.35
2022-12-17T07:14:46.794Z,-2.36
2022-12-17T07:17:37.340Z,-2.40
2022-12-17T07:20:27.553Z,-2.35
2022-12-17T07:23:18.259Z,-2.43
2022-12-17T07:26:08.369Z,-2.49
2022-12-17T07:28:59.070Z,-2.46
2022-12-17T07:31:51.230Z,-2.46
2022-12-17T07:34:41.339Z,-2.57
2022-12-17T07:37:31.882Z,-2.62
2022-12-17T07:40:22.116Z,-2.54
2022-12-17T07:43:12.884Z,-2.46
2022-12-17T07:46:03.176Z,-2.44
2022-12-17T07:48:54.119Z,-2.37
2022-12-17T07:51:44.518Z,-2.36
2022-12-17T07:54:34.706Z,-2.56
2022-12-17T07:57:25.109Z,-2.62
2022-12-17T08:00:15.546Z,-2.63
2022-12-17T08:03:06.143Z,-2.49
2022-12-17T08:05:56.486Z,-2.38
2022-12-17T08:08:46.980Z,-2.34
2022-12-17T08:11:37.415Z,-2.35
2022-12-17T08:14:27.645Z,-2.37
2022-12-17T08:17:17.855Z,-2.31
2022-12-17T08:20:08.364Z,-2.30
2022-12-17T08:22:58.841Z,-2.24
2022-12-17T08:25:49.084Z,-2.19
2022-12-17T08:28:50.414Z,-2.02
2022-12-17T08:31:41.444Z,-2.16
2022-12-17T08:34:31.738Z,-1.94
2022-12-17T08:37:22.174Z,-1.96
2022-12-17T08:40:12.196Z,-1.97
2022-12-17T08:43:02.340Z,-1.90
2022-12-17T08:45:52.634Z,-1.98
2022-12-17T08:48:43.360Z,-1.93
2022-12-17T08:51:33.424Z,-1.90
2022-12-17T08:54:23.896Z,-1.90
2022-12-17T08:57:30.500Z,-1.78
2022-12-17T09:00:21.811Z,-1.78
2022-12-17T09:03:12.744Z,-1.86
2022-12-17T09:06:03.213Z,-1.79
2022-12-17T09:08:53.739Z,-1.91
2022-12-17T09:11:43.903Z,-1.80
2022-12-17T09:14:34.701Z,-1.79
2022-12-17T09:17:25.364Z,-1.78
2022-12-17T09:20:15.599Z,-2.00
2022-12-17T09:23:06.086Z,-1.86
2022-12-17T09:25:58.197Z,-1.69
2022-12-17T09:28:49.155Z,-1.58
2022-12-17T09:31:39.118Z,-1.55
2022-12-17T09:34:29.513Z,-1.54
2022-12-17T09:37:20.042Z,-1.46
2022-12-17T09:40:10.180Z,-1.40
2022-12-17T09:43:00.630Z,-1.51
2022-12-17T09:45:50.782Z,-1.78
2022-12-17T09:48:41.413Z,-1.93
2022-12-17T09:51:31.584Z,-1.65
2022-12-17T09:54:22.343Z,-1.48
2022-12-17T09:57:12.875Z,-1.62
2022-12-17T10:00:02.932Z,-1.43
2022-12-17T10:02:53.577Z,-1.44
2022-12-17T10:05:43.917Z,-1.50
2022-12-17T10:08:34.315Z,-1.45
2022-12-17T10:11:24.467Z,-1.58
2022-12-17T10:14:15.030Z,-1.68
2022-12-17T10:17:11.453Z,-1.55
2022-12-17T10:20:02.342Z,-1.80
2022-12-17T10:22:52.870Z,-2.03
2022-12-17T10:25:43.040Z,-1.65
2022-12-17T10:28:33.536Z,-1.53
2022-12-17T10:31:23.804Z,-1.43
2022-12-17T10:34:14.477Z,-1.78
2022-12-17T10:37:04.693Z,-1.62
2022-12-17T10:39:55.306Z,-1.82
2022-12-17T10:42:45.537Z,-1.88
2022-12-17T10:45:35.657Z,-1.84
2022-12-17T10:48:26.117Z,-1.97
2022-12-17T10:51:16.177Z,-1.89
2022-12-17T10:54:06.691Z,-1.82
2022-12-17T10:56:57.023Z,-1.91
2022-12-17T10:59:47.351Z,-1.67
2022-12-17T11:02:37.614Z,-1.56
2022-12-17T11:05:28.343Z,-2.68
2022-12-17T11:08:18.498Z,-1.54
2022-12-17T11:11:08.523Z,-1.55
2022-12-17T11:13:58.952Z,-1.28
2022-12-17T11:16:48.914Z,-1.32
2022-12-17T11:19:39.338Z,-1.27
2022-12-17T11:22:29.795Z,-1.20
2022-12-17T11:25:19.897Z,-1.24
2022-12-17T11:28:10.242Z,-1.22
2022-12-17T11:31:11.191Z,-1.18
2022-12-17T11:34:01.647Z,-1.25
2022-12-17T11:36:51.794Z,-1.12
2022-12-17T11:39:42.231Z,-1.22
2022-12-17T11:42:32.626Z,-1.26
2022-12-17T11:45:22.860Z,-1.60
2022-12-17T11:48:13.556Z,-1.50
2022-12-17T11:51:03.893Z,-1.85
2022-12-17T11:53:54.566Z,-1.68
2022-12-17T11:56:44.712Z,-1.48
2022-12-17T11:59:35.156Z,-2.00
2022-12-17T12:02:25.348Z,-1.99
2022-12-17T12:05:15.992Z,-2.01
2022-12-17T12:08:06.316Z,-1.85
2022-12-17T12:10:56.439Z,-2.02
2022-12-17T12:13:46.928Z,-1.86
2022-12-17T12:16:42.043Z,-1.97
2022-12-17T12:19:34.095Z,-1.85
2022-12-17T12:22:30.346Z,-1.90
2022-12-17T12:25:21.135Z,-1.88
2022-12-17T12:28:11.474Z,-1.95
2022-12-17T12:31:01.731Z,-1.84
2022-12-17T12:33:52.253Z,-1.85
2022-12-17T12:36:42.443Z,-1.79
2022-12-17T12:39:32.964Z,-1.78
2022-12-17T12:42:23.100Z,-1.95
2022-12-17T12:45:13.341Z,-1.90
2022-12-17T12:48:03.942Z,-1.82
2022-12-17T12:50:54.141Z,-2.00
2022-12-17T12:53:45.104Z,-1.89
2022-12-17T12:56:45.814Z,-2.03
2022-12-17T12:59:36.274Z,-2.14
2022-12-17T13:02:26.972Z,-2.35
2022-12-17T13:05:17.778Z,-2.53
2022-12-17T13:07:49.272Z,-2.31
2022-12-17T13:10:21.098Z,-2.14
2022-12-17T13:12:52.861Z,-2.08
2022-12-17T13:15:26.845Z,-1.97
2022-12-17T13:18:02.089Z,-1.94
2022-12-17T13:20:33.802Z,-1.96
2022-12-17T13:23:05.407Z,-1.95
2022-12-17T13:25:36.957Z,-2.06
2022-12-17T13:28:08.509Z,-2.06
2022-12-17T13:30:40.126Z,-2.02
2022-12-17T13:33:12.026Z,-2.03
2022-12-17T13:35:43.541Z,-2.07
2022-12-17T13:38:15.439Z,-2.36
2022-12-17T13:40:47.007Z,-2.54
2022-12-17T13:43:18.645Z,-2.56
2022-12-17T13:45:50.239Z,-2.76
2022-12-17T13:48:22.130Z,-2.62
2022-12-17T13:50:53.676Z,-2.50
2022-12-17T13:53:25.536Z,-2.39
2022-12-17T13:55:58.490Z,-2.40
2022-12-17T13:58:30.273Z,-2.50
2022-12-17T14:01:01.801Z,-2.62
2022-12-17T14:03:57.150Z,-2.77
2022-12-17T14:06:25.063Z,-2.85
2022-12-17T14:08:57.141Z,-2.72
2022-12-17T14:11:47.463Z,-2.72
2022-12-17T14:14:19.428Z,-2.83
2022-12-17T14:16:51.176Z,-2.77
2022-12-17T14:19:23.036Z,-2.69
2022-12-17T14:21:54.569Z,-2.96
2022-12-17T14:24:29.669Z,-2.71
2022-12-17T14:27:01.343Z,-2.66
2022-12-17T14:29:33.381Z,-2.68
2022-12-17T14:32:04.899Z,-2.60
2022-12-17T14:34:36.438Z,-2.63
2022-12-17T14:37:07.907Z,-2.63
2022-12-17T14:39:39.451Z,-2.59
2022-12-17T14:42:26.427Z,-2.74
2022-12-17T14:44:58.558Z,-2.79
2022-12-17T14:47:30.083Z,-2.79
2022-12-17T14:50:01.639Z,-2.86
2022-12-17T14:52:33.110Z,-2.70
2022-12-17T14:55:04.622Z,-2.65
2022-12-17T14:57:36.122Z,-2.58
2022-12-17T15:00:07.626Z,-2.63
2022-12-17T15:02:39.354Z,-2.65
2022-12-17T15:05:11.036Z,-2.70
2022-12-17T15:07:42.534Z,-2.73
2022-12-17T15:10:14.322Z,-2.80
2022-12-17T15:12:45.850Z,-2.78
2022-12-17T15:15:17.401Z,-3.03
2022-12-17T15:17:48.916Z,-3.08
2022-12-17T15:20:20.900Z,-3.09
2022-12-17T15:22:52.396Z,-3.03
2022-12-17T15:25:24.326Z,-3.18
2022-12-17T15:27:55.803Z,-3.34
2022-12-17T15:30:27.873Z,-3.44
2022-12-17T15:32:59.439Z,-3.60
2022-12-17T15:35:31.172Z,-3.61
2022-12-17T15:38:02.629Z,-3.63
2022-12-17T15:40:34.117Z,-3.84
2022-12-17T15:43:11.705Z,-3.78
2022-12-17T15:45:43.650Z,-3.82
2022-12-17T15:48:15.178Z,-3.78
2022-12-17T15:50:46.797Z,-3.68
2022-12-17T15:53:18.259Z,-3.61
2022-12-17T15:55:49.943Z,-3.72
2022-12-17T15:58:21.498Z,-3.72
2022-12-17T16:00:53.232Z,-3.57
2022-12-17T16:03:24.777Z,-3.46
2022-12-17T16:05:56.839Z,-3.44
2022-12-17T16:08:28.318Z,-3.52
2022-12-17T16:10:59.799Z,-3.57
2022-12-17T16:13:31.260Z,-3.56
2022-12-17T16:16:04.321Z,-3.70
2022-12-17T16:18:36.403Z,-3.91
2022-12-17T16:21:08.559Z,-3.78
2022-12-17T16:23:40.059Z,-3.79
2022-12-17T16:26:11.616Z,-3.74
2022-12-17T16:28:43.094Z,-3.81
2022-12-17T16:31:14.660Z,-3.85
2022-12-17T16:33:48.094Z,-3.76
2022-12-17T16:36:19.918Z,-3.84
2022-12-17T16:38:51.787Z,-3.96
2022-12-17T16:41:23.773Z,-4.03
2022-12-17T16:43:55.440Z,-3.98
2022-12-17T16:46:27.231Z,-4.13
2022-12-17T16:48:59.184Z,-4.13
2022-12-17T16:51:30.743Z,-4.06
2022-12-17T16:54:02.575Z,-4.02
2022-12-17T16:56:39.661Z,-4.00
2022-12-17T16:59:12.334Z,-3.93
2022-12-17T17:01:44.889Z,-3.91
2022-12-17T17:04:16.915Z,-4.16
2022-12-17T17:06:48.394Z,-4.21
2022-12-17T17:09:20.152Z,-4.24
2022-12-17T17:11:52.436Z,-4.21
2022-12-17T17:14:24.468Z,-4.23
2022-12-17T17:16:56.064Z,-4.25
2022-12-17T17:19:27.844Z,-4.18
2022-12-17T17:21:59.372Z,-4.12
2022-12-17T17:24:31.290Z,-4.12
2022-12-17T17:27:02.829Z,-4.04
2022-12-17T17:29:34.605Z,-3.96
2022-12-17T17:32:11.045Z,-4.12
2022-12-17T17:34:43.552Z,-4.03
2022-12-17T17:37:15.165Z,-4.21
2022-12-17T17:39:46.851Z,-4.20
2022-12-17T17:42:18.324Z,-4.19
2022-12-17T17:44:50.264Z,-4.21
2022-12-17T17:47:21.786Z,-4.23
2022-12-17T17:49:53.640Z,-4.19
2022-12-17T17:52:25.180Z,-4.27
2022-12-17T17:54:56.959Z,-4.33
2022-12-17T17:57:28.435Z,-4.06
2022-12-17T18:00:00.298Z,-4.19
2022-12-17T18:02:31.923Z,-4.16
2022-12-17T18:05:04.060Z,-4.16
2022-12-17T18:07:35.518Z,-4.24
2022-12-17T18:10:07.099Z,-4.36
2022-12-17T18:12:57.155Z,-4.48
2022-12-17T18:15:28.662Z,-4.35
2022-12-17T18:18:00.129Z,-4.53
2022-12-17T18:20:31.992Z,-4.64
2022-12-17T18:23:03.459Z,-4.62
2022-12-17T18:25:37.642Z,-4.57
2022-12-17T18:28:09.504Z,-4.63
2022-12-17T18:30:41.557Z,-4.81
2022-12-17T18:33:13.030Z,-4.69
2022-12-17T18:35:44.710Z,-4.77
2022-12-17T18:38:16.721Z,-4.74
2022-12-17T18:40:48.548Z,-4.70
2022-12-17T18:43:26.056Z,-4.84
2022-12-17T18:45:57.702Z,-4.87
2022-12-17T18:48:29.302Z,-5.11
2022-12-17T18:51:02.829Z,-5.07
2022-12-17T18:53:34.505Z,-5.03
2022-12-17T18:56:06.633Z,-5.17
2022-12-17T18:58:38.441Z,-5.00
2022-12-17T19:01:10.387Z,-5.08
2022-12-17T19:03:41.908Z,-5.04
2022-12-17T19:06:13.797Z,-4.89
2022-12-17T19:08:45.342Z,-5.04
2022-12-17T19:11:16.851Z,-5.11
2022-12-17T19:13:48.402Z,-5.15
2022-12-17T19:16:20.261Z,-5.11
2022-12-17T19:18:51.824Z,-5.08
2022-12-17T19:21:23.627Z,-5.10
2022-12-17T19:23:55.091Z,-5.04
2022-12-17T19:26:27.027Z,-5.32
2022-12-17T19:28:58.561Z,-5.26
2022-12-17T19:31:31.090Z,-5.25
2022-12-17T19:34:02.716Z,-5.28
2022-12-17T19:36:34.545Z,-5.21
2022-12-17T19:39:06.115Z,-5.05
2022-12-17T19:41:37.609Z,-5.05
2022-12-17T19:44:09.245Z,-5.00
2022-12-17T19:46:41.172Z,-5.04
2022-12-17T19:49:12.640Z,-5.11
2022-12-17T19:51:47.208Z,-5.00
2022-12-17T19:54:18.731Z,-5.01
2022-12-17T19:56:50.721Z,-5.08
2022-12-17T19:59:22.273Z,-5.03
2022-12-17T20:01:54.223Z,-4.97
2022-12-17T20:04:25.862Z,-5.03
2022-12-17T20:06:57.730Z,-5.02
2022-12-17T20:09:29.282Z,-4.84
2022-12-17T20:12:00.841Z,-4.80
2022-12-17T20:14:34.210Z,-5.01
2022-12-17T20:17:05.842Z,-5.28
2022-12-17T20:19:37.530Z,-5.36
2022-12-17T20:22:09.090Z,-5.56
2022-12-17T20:24:40.609Z,-5.62
2022-12-17T20:27:12.226Z,-5.60
2022-12-17T20:29:43.824Z,-5.66
2022-12-17T20:32:19.721Z,-5.51
2022-12-17T20:34:51.639Z,-5.54
2022-12-17T20:37:23.174Z,-5.64
2022-12-17T20:39:55.962Z,-5.72
2022-12-17T20:42:27.508Z,-5.70
2022-12-17T20:44:59.450Z,-5.62
2022-12-17T20:47:31.006Z,-5.50
2022-12-17T20:50:02.937Z,-5.45
2022-12-17T20:52:34.482Z,-5.51
2022-12-17T20:55:06.007Z,-5.42
2022-12-17T20:57:37.640Z,-5.38
2022-12-17T21:00:09.193Z,-5.34
2022-12-17T21:02:41.006Z,-5.38
2022-12-17T21:05:13.106Z,-5.23
2022-12-17T21:07:44.788Z,-7.22
2022-12-17T21:10:16.830Z,-5.55
2022-12-17T21:13:07.256Z,-5.50
2022-12-17T21:15:39.090Z,-5.56
2022-12-17T21:18:10.662Z,-5.54
2022-12-17T21:20:42.567Z,-5.80
2022-12-17T21:23:14.252Z,-5.70
2022-12-17T21:25:45.828Z,-5.80
2022-12-17T21:28:24.871Z,-5.70
2022-12-17T21:30:56.808Z,-5.69
2022-12-17T21:33:28.412Z,-5.71
2022-12-17T21:36:00.775Z,-5.78
2022-12-17T21:38:32.333Z,-5.63
2022-12-17T21:41:03.989Z,-5.69
2022-12-17T21:43:36.883Z,-5.76
2022-12-17T21:46:08.616Z,-5.61
2022-12-17T21:48:42.115Z,-5.62
2022-12-17T21:51:14.378Z,-5.59
2022-12-17T21:53:46.147Z,-5.50
2022-12-17T21:56:18.115Z,-5.51
2022-12-17T21:58:49.926Z,-5.59
2022-12-17T22:01:25.748Z,-5.60
2022-12-17T22:03:57.385Z,-5.62
2022-12-17T22:06:33.854Z,-5.70
2022-12-17T22:09:33.446Z,-5.59
2022-12-17T22:12:33.402Z,-5.69
2022-12-17T22:15:04.927Z,-5.72
2022-12-17T22:17:37.187Z,-5.83
2022-12-17T22:20:08.995Z,-5.94
2022-12-17T22:22:41.134Z,-6.04
2022-12-17T22:25:12.837Z,-6.04
2022-12-17T22:27:44.842Z,-5.99
2022-12-17T22:30:35.554Z,-6.36
2022-12-17T22:33:13.800Z,-6.29
2022-12-17T22:37:02.963Z,-6.27
2022-12-17T22:41:59.584Z,-6.13
2022-12-17T22:44:36.511Z,-5.97
2022-12-17T22:44:54.092Z,-5.99
2022-12-17T22:47:27.755Z,-6.03
2022-12-17T22:49:59.281Z,-6.19
2022-12-17T22:52:31.532Z,-6.36
2022-12-17T22:55:03.396Z,-6.10
2022-12-17T22:57:38.233Z,-6.15
2022-12-17T23:00:10.205Z,-6.18
2022-12-17T23:02:42.115Z,-6.00
2022-12-17T23:05:14.498Z,-5.96
2022-12-17T23:07:46.228Z,-5.90
2022-12-17T23:10:17.792Z,-6.01
2022-12-17T23:12:53.176Z,-6.08
2022-12-17T23:15:24.678Z,-6.05
2022-12-17T23:17:56.308Z,-6.08
2022-12-17T23:20:27.885Z,-6.13
2022-12-17T23:22:59.723Z,-5.99
2022-12-17T23:25:31.347Z,-6.03
2022-12-17T23:28:03.188Z,-6.07
2022-12-17T23:30:35.070Z,-6.01
2022-12-17T23:33:06.582Z,-6.20
2022-12-17T23:35:38.346Z,-6.10
2022-12-17T23:38:09.900Z,-6.16
2022-12-17T23:40:41.773Z,-6.20
2022-12-17T23:43:17.925Z,-6.28
2022-12-17T23:45:50.058Z,-6.11
2022-12-17T23:48:25.731Z,-6.27
2022-12-17T23:50:57.689Z,-6.32
2022-12-17T23:53:29.244Z,-6.26
2022-12-17T23:56:01.250Z,-6.29
2022-12-17T23:58:32.813Z,-6.29
